Time;durP1;ratioP1;P1;durP2;ratioP2;P2;SDS_P1;SDS_P2;PMS_P1;PMS_P2;Temp;Humidity;BMP_temperature;BMP_pressure;BME280_temperature;BME280_humidity;BME280_pressure;Samples;Min_cycle;Max_cycle;Signal;HPM_P1;HPM_P2
2021/12/07 00:00:47;;;;;;;24.13;14.98;;;4.00;99.90;;;;;;5125403;27;20043;-63
2021/12/07 00:03:13;;;;;;;21.17;14.48;;;3.90;99.90;;;;;;5137337;27;20043;-63
2021/12/07 00:05:39;;;;;;;22.92;14.68;;;3.90;99.90;;;;;;5145653;27;20061;-63
2021/12/07 00:08:05;;;;;;;21.95;14.52;;;3.90;99.90;;;;;;5139626;27;20039;-63
2021/12/07 00:10:31;;;;;;;20.20;12.93;;;3.90;99.90;;;;;;5123173;28;20063;-63
2021/12/07 00:12:58;;;;;;;21.63;13.60;;;4.00;99.90;;;;;;5141030;27;20055;-63
2021/12/07 00:15:25;;;;;;;22.13;12.40;;;4.00;99.90;;;;;;5114459;28;20059;-63
2021/12/07 00:17:51;;;;;;;17.38;11.15;;;4.00;99.90;;;;;;5127014;28;20065;-63
2021/12/07 00:20:19;;;;;;;20.10;11.20;;;4.00;99.90;;;;;;5127016;28;20063;-63
2021/12/07 00:22:49;;;;;;;19.48;12.35;;;4.00;99.90;;;;;;5132761;28;20176;-63
2021/12/07 00:25:15;;;;;;;19.38;13.98;;;4.00;99.90;;;;;;5122848;28;20095;-63
2021/12/07 00:27:41;;;;;;;20.38;14.32;;;3.90;99.90;;;;;;5125019;28;20495;-63
2021/12/07 00:30:09;;;;;;;19.13;13.27;;;3.70;99.90;;;;;;5120892;28;20063;-63
2021/12/07 00:32:41;;;;;;;21.05;13.13;;;3.70;99.90;;;;;;5119892;28;20079;-63
2021/12/07 00:35:24;;;;;;;20.05;13.30;;;3.70;99.90;;;;;;5114563;28;20047;-63
2021/12/07 00:37:56;;;;;;;20.38;13.23;;;3.70;99.90;;;;;;5120678;28;20095;-63
2021/12/07 00:40:23;;;;;;;17.25;12.15;;;3.60;99.90;;;;;;5125849;28;20043;-63
2021/12/07 00:42:49;;;;;;;17.15;12.60;;;3.60;99.90;;;;;;5135880;28;20056;-63
2021/12/07 00:45:19;;;;;;;18.63;12.73;;;3.60;99.90;;;;;;5120244;28;20065;-63
2021/12/07 00:47:47;;;;;;;18.67;13.02;;;3.60;99.90;;;;;;5144814;28;20125;-63
2021/12/07 00:50:13;;;;;;;19.80;11.73;;;3.50;99.90;;;;;;5143927;28;20039;-63
2021/12/07 00:52:39;;;;;;;19.40;12.73;;;3.50;99.90;;;;;;5135851;28;20066;-63
2021/12/07 00:55:13;;;;;;;17.63;12.25;;;3.50;99.90;;;;;;5119820;28;20054;-63
2021/12/07 00:57:39;;;;;;;17.45;11.38;;;3.60;99.90;;;;;;5137813;28;20065;-63
2021/12/07 01:00:10;;;;;;;17.88;12.02;;;3.50;99.90;;;;;;5129741;28;20031;-63
2021/12/07 01:02:36;;;;;;;18.73;12.55;;;3.50;99.90;;;;;;5140705;28;20070;-63
2021/12/07 01:05:10;;;;;;;18.45;13.10;;;3.60;99.90;;;;;;5145269;28;20054;-63
2021/12/07 01:26:16;;;;;;;17.13;11.90;;;3.20;99.90;;;;;;5139704;27;20104;-63
2021/12/07 01:28:45;;;;;;;15.90;10.68;;;3.10;99.90;;;;;;5148178;27;20514;-63
2021/12/07 01:31:19;;;;;;;16.35;12.02;;;3.20;99.90;;;;;;5122515;28;20110;-63
2021/12/07 01:59:47;;;;;;;15.38;11.32;;;3.00;99.90;;;;;;5121212;28;20068;-63
2021/12/07 02:02:16;;;;;;;16.80;11.98;;;3.00;99.90;;;;;;5119158;27;20043;-63
2021/12/07 02:04:43;;;;;;;16.17;11.13;;;2.90;99.90;;;;;;5129469;27;20043;-63
2021/12/07 02:07:10;;;;;;;16.40;11.23;;;2.90;99.90;;;;;;5121896;27;20047;-62
2021/12/07 02:09:39;;;;;;;17.52;12.40;;;2.90;99.90;;;;;;5123873;27;20063;-62
2021/12/07 02:12:06;;;;;;;16.98;11.80;;;2.80;99.90;;;;;;5139608;27;20047;-63
2021/12/07 02:14:33;;;;;;;16.77;11.40;;;2.90;99.90;;;;;;5110925;28;20047;-63
2021/12/07 02:17:03;;;;;;;15.80;11.60;;;3.00;99.90;;;;;;5116404;28;20063;-63
2021/12/07 02:19:29;;;;;;;16.77;11.73;;;3.00;99.90;;;;;;5118257;27;20104;-63
2021/12/07 02:21:57;;;;;;;16.92;11.82;;;2.80;99.90;;;;;;5140901;27;20051;-63
2021/12/07 02:24:24;;;;;;;15.90;12.40;;;2.90;99.90;;;;;;5145063;27;20050;-63
2021/12/07 02:26:50;;;;;;;17.83;12.00;;;2.60;99.90;;;;;;5135740;27;20095;-63
2021/12/07 02:29:17;;;;;;;15.98;11.45;;;2.80;99.90;;;;;;5122529;27;20043;-63
2021/12/07 02:31:44;;;;;;;16.55;11.60;;;2.90;99.90;;;;;;5122625;28;20048;-63
2021/12/07 02:34:11;;;;;;;15.25;11.68;;;2.80;99.90;;;;;;5144955;27;20099;-63
2021/12/07 02:36:39;;;;;;;16.45;11.95;;;2.80;99.90;;;;;;5137318;27;20104;-63
2021/12/07 02:39:10;;;;;;;15.95;11.15;;;2.70;99.90;;;;;;5132762;27;20045;-63
2021/12/07 02:41:36;;;;;;;15.32;11.40;;;2.70;99.90;;;;;;5137779;27;20104;-63
2021/12/07 02:44:06;;;;;;;13.98;10.48;;;2.80;99.90;;;;;;5126073;27;20070;-63
2021/12/07 02:46:33;;;;;;;15.18;10.70;;;2.80;99.90;;;;;;5123204;28;20062;-63
2021/12/07 02:48:58;;;;;;;15.35;11.70;;;2.90;99.90;;;;;;5134134;27;20157;-63
2021/12/07 02:51:24;;;;;;;15.73;11.90;;;2.90;99.90;;;;;;5121751;27;20145;-63
2021/12/07 02:53:50;;;;;;;14.18;10.00;;;2.80;99.90;;;;;;5109593;27;20042;-62
2021/12/07 02:56:16;;;;;;;15.20;11.63;;;2.70;99.90;;;;;;5126083;27;20054;-63
2021/12/07 02:58:43;;;;;;;15.50;11.25;;;2.80;99.90;;;;;;5128191;27;20047;-63
2021/12/07 03:01:19;;;;;;;16.42;11.90;;;2.70;99.90;;;;;;5126004;27;20047;-63
2021/12/07 03:28:05;;;;;;;20.75;15.60;;;2.30;99.90;;;;;;5141644;27;20050;-62
2021/12/07 03:30:32;;;;;;;20.92;13.65;;;2.00;99.90;;;;;;5144748;27;20056;-63
2021/12/07 03:32:59;;;;;;;18.67;13.70;;;2.00;99.90;;;;;;5128210;27;20095;-63
2021/12/07 03:35:26;;;;;;;19.92;14.13;;;2.10;99.90;;;;;;5134918;27;20131;-63
2021/12/07 03:37:53;;;;;;;18.73;13.85;;;2.30;99.90;;;;;;5120510;27;20047;-63
2021/12/07 03:40:18;;;;;;;19.25;13.57;;;2.30;99.90;;;;;;5139522;27;20094;-63
2021/12/07 03:42:44;;;;;;;19.52;13.85;;;2.50;99.90;;;;;;5114696;27;20496;-63
2021/12/07 03:45:11;;;;;;;21.83;15.73;;;2.60;99.90;;;;;;5127788;27;20046;-63
2021/12/07 03:47:36;;;;;;;19.65;13.98;;;2.60;99.90;;;;;;5127336;27;20043;-63
2021/12/07 03:50:03;;;;;;;21.33;15.45;;;2.70;99.90;;;;;;5126693;27;20494;-63
2021/12/07 03:52:29;;;;;;;22.90;16.13;;;2.70;99.90;;;;;;5117199;27;20099;-63
2021/12/07 03:54:55;;;;;;;23.92;16.67;;;2.50;99.90;;;;;;5121973;28;20070;-63
2021/12/07 03:57:20;;;;;;;21.63;15.00;;;2.40;99.90;;;;;;5131744;27;20406;-63
2021/12/07 03:59:46;;;;;;;24.85;16.67;;;2.10;99.90;;;;;;5126745;27;20172;-63
2021/12/07 04:02:12;;;;;;;26.67;18.17;;;2.20;99.90;;;;;;5140949;27;20042;-63
2021/12/07 04:04:38;;;;;;;24.80;17.58;;;2.00;99.90;;;;;;5113729;28;20051;-63
2021/12/07 04:07:05;;;;;;;23.55;17.05;;;2.10;99.90;;;;;;5116061;28;20057;-63
2021/12/07 04:09:32;;;;;;;24.88;16.65;;;2.20;99.90;;;;;;5125660;28;20107;-63
2021/12/07 04:11:59;;;;;;;25.50;17.67;;;2.20;99.90;;;;;;5121245;28;20415;-63
2021/12/07 04:14:24;;;;;;;23.02;16.42;;;2.00;99.90;;;;;;5127870;28;20043;-63
2021/12/07 04:16:50;;;;;;;26.05;18.17;;;2.00;99.90;;;;;;5141364;28;20168;-63
2021/12/07 04:19:16;;;;;;;23.38;16.58;;;1.90;99.90;;;;;;5138112;28;20085;-63
2021/12/07 04:21:42;;;;;;;28.63;17.88;;;2.00;99.90;;;;;;5116569;28;20526;-63
2021/12/07 04:24:08;;;;;;;27.95;18.20;;;1.80;99.90;;;;;;5137820;28;20035;-63
2021/12/07 04:26:34;;;;;;;24.35;17.60;;;1.70;99.90;;;;;;5127526;28;20067;-63
2021/12/07 04:29:00;;;;;;;28.73;18.83;;;1.80;99.90;;;;;;5130806;28;20043;-63
2021/12/07 04:31:26;;;;;;;32.50;19.20;;;1.60;99.90;;;;;;5136612;28;20073;-63
2021/12/07 04:33:52;;;;;;;33.92;20.35;;;1.60;99.90;;;;;;5132998;28;20091;-63
2021/12/07 04:36:18;;;;;;;31.27;19.13;;;1.50;99.90;;;;;;5112333;28;20048;-62
2021/12/07 04:38:43;;;;;;;29.60;17.67;;;1.50;99.90;;;;;;5138511;28;20028;-63
2021/12/07 04:41:10;;;;;;;28.90;18.33;;;1.40;99.90;;;;;;5138544;28;20134;-63
2021/12/07 04:43:38;;;;;;;30.48;19.17;;;1.50;99.90;;;;;;5138837;28;20073;-63
2021/12/07 04:59:36;;;;;;;28.13;17.80;;;1.50;99.90;;;;;;5132149;28;20104;-63
2021/12/07 05:02:02;;;;;;;29.90;18.63;;;1.60;99.90;;;;;;5139530;27;20376;-63
2021/12/07 05:04:33;;;;;;;31.17;18.30;;;1.50;99.90;;;;;;5127775;27;20088;-62
2021/12/07 05:07:09;;;;;;;31.55;19.38;;;1.40;99.90;;;;;;5138639;27;20039;-62
2021/12/07 05:14:38;;;;;;;32.05;18.08;;;1.30;99.90;;;;;;5120543;27;20043;-63
2021/12/07 05:17:38;;;;;;;33.67;18.48;;;1.30;99.90;;;;;;5120800;28;20056;-63
2021/12/07 05:39:36;;;;;;;27.73;15.32;;;1.50;99.90;;;;;;5058260;28;20239;-63
2021/12/07 05:42:02;;;;;;;25.40;15.65;;;1.50;99.90;;;;;;5009338;28;20045;-62
2021/12/07 05:44:28;;;;;;;26.67;15.95;;;1.40;99.90;;;;;;5046299;28;20060;-62
2021/12/07 05:46:53;;;;;;;33.53;17.27;;;1.40;99.90;;;;;;5054860;28;20048;-62
2021/12/07 05:49:19;;;;;;;28.85;16.05;;;1.40;99.90;;;;;;5033852;28;20429;-62
2021/12/07 05:51:45;;;;;;;30.13;17.67;;;1.40;99.90;;;;;;5025099;28;20045;-65
2021/12/07 05:54:11;;;;;;;29.17;16.35;;;1.50;99.90;;;;;;5078731;27;20079;-62
2021/12/07 05:56:36;;;;;;;29.67;16.27;;;1.40;99.90;;;;;;5108309;27;20051;-65
2021/12/07 05:59:02;;;;;;;24.98;14.98;;;1.40;99.90;;;;;;5082945;28;20054;-63
2021/12/07 06:01:28;;;;;;;25.38;14.93;;;1.50;99.90;;;;;;5137092;27;20080;-62
2021/12/07 06:03:54;;;;;;;28.38;15.48;;;1.50;99.90;;;;;;5112866;27;20046;-62
2021/12/07 06:06:20;;;;;;;25.55;14.70;;;1.50;99.90;;;;;;5103979;27;20039;-63
2021/12/07 06:08:45;;;;;;;29.77;16.10;;;1.50;99.90;;;;;;5112727;27;20258;-61
2021/12/07 06:11:11;;;;;;;23.90;14.18;;;1.50;99.90;;;;;;5095747;27;20039;-61
2021/12/07 06:13:37;;;;;;;27.80;14.95;;;1.50;99.90;;;;;;5112648;27;20073;-62
2021/12/07 06:16:07;;;;;;;26.42;15.95;;;1.50;99.90;;;;;;5120960;27;20070;-62
2021/12/07 06:18:36;;;;;;;28.63;14.67;;;1.50;99.90;;;;;;5122840;27;20434;-62
2021/12/07 06:21:03;;;;;;;28.60;16.35;;;1.50;99.90;;;;;;5103645;27;20047;-62
2021/12/07 06:23:29;;;;;;;30.70;17.38;;;1.50;99.90;;;;;;5109499;27;20072;-62
2021/12/07 06:25:56;;;;;;;28.45;16.08;;;1.60;99.90;;;;;;5120782;27;20053;-62
2021/12/07 06:28:22;;;;;;;26.58;15.27;;;1.60;99.90;;;;;;5104865;27;20105;-63
2021/12/07 06:30:48;;;;;;;30.38;16.25;;;1.60;99.90;;;;;;5116985;27;20070;-67
2021/12/07 06:33:16;;;;;;;28.15;15.23;;;1.50;99.90;;;;;;5108000;27;20073;-62
2021/12/07 06:35:42;;;;;;;26.17;15.13;;;1.60;99.90;;;;;;5119504;27;20586;-61
2021/12/07 06:38:08;;;;;;;28.20;16.13;;;1.60;99.90;;;;;;5126988;27;20066;-61
2021/12/07 06:40:34;;;;;;;30.73;15.90;;;1.60;99.90;;;;;;5118209;27;20047;-61
2021/12/07 06:43:00;;;;;;;26.17;15.45;;;1.60;99.90;;;;;;5127624;27;20577;-62
2021/12/07 06:45:28;;;;;;;24.83;14.55;;;1.80;99.90;;;;;;5132978;27;20062;-62
2021/12/07 06:47:54;;;;;;;27.15;14.23;;;1.90;99.90;;;;;;5125938;27;20093;-62
2021/12/07 06:50:20;;;;;;;25.00;14.38;;;1.80;99.90;;;;;;5137128;27;20047;-62
2021/12/07 06:52:46;;;;;;;27.10;15.35;;;1.80;99.90;;;;;;5126995;27;20054;-62
2021/12/07 06:55:12;;;;;;;22.25;13.05;;;1.90;99.90;;;;;;5120957;27;20051;-62
2021/12/07 06:57:38;;;;;;;22.85;13.82;;;2.00;99.90;;;;;;5135729;27;20043;-62
2021/12/07 07:00:06;;;;;;;24.27;12.85;;;2.10;99.90;;;;;;5105984;27;20058;-63
2021/12/07 07:02:32;;;;;;;20.92;12.25;;;2.10;99.90;;;;;;5135850;27;20055;-62
2021/12/07 07:04:58;;;;;;;22.85;13.02;;;2.10;99.90;;;;;;5108940;27;20043;-64
2021/12/07 07:07:24;;;;;;;27.20;13.93;;;2.00;99.90;;;;;;5135132;27;20043;-63
2021/12/07 07:09:50;;;;;;;27.98;13.93;;;1.90;99.90;;;;;;5096918;28;20112;-62
2021/12/07 07:12:16;;;;;;;31.77;15.95;;;1.90;99.90;;;;;;5131386;27;20304;-62
2021/12/07 07:14:42;;;;;;;24.27;14.43;;;1.90;99.90;;;;;;5100232;28;20035;-62
2021/12/07 07:17:08;;;;;;;23.98;14.35;;;1.90;99.90;;;;;;5098483;28;20087;-62
2021/12/07 07:19:34;;;;;;;29.00;15.38;;;1.80;99.90;;;;;;5092497;28;20055;-62
2021/12/07 07:22:01;;;;;;;30.92;15.32;;;1.70;99.90;;;;;;5099806;28;20101;-62
2021/12/07 07:24:29;;;;;;;25.50;14.68;;;1.70;99.90;;;;;;5087130;28;20051;-62
2021/12/07 07:26:55;;;;;;;33.08;15.85;;;1.70;99.90;;;;;;5099537;28;20052;-62
2021/12/07 07:29:21;;;;;;;33.25;15.90;;;1.60;99.90;;;;;;5088716;28;20108;-62
2021/12/07 07:31:46;;;;;;;28.17;15.20;;;1.60;99.90;;;;;;5098509;28;20112;-62
2021/12/07 07:34:12;;;;;;;29.02;15.23;;;1.60;99.90;;;;;;5088681;27;20100;-63
2021/12/07 07:36:38;;;;;;;31.00;16.20;;;1.60;99.90;;;;;;5099919;28;20094;-63
2021/12/07 07:39:05;;;;;;;33.75;15.48;;;1.60;99.90;;;;;;5089382;28;20151;-63
2021/12/07 07:41:30;;;;;;;31.00;16.63;;;1.60;99.90;;;;;;5089257;28;20163;-63
2021/12/07 07:43:56;;;;;;;28.63;15.98;;;1.60;99.90;;;;;;5090622;28;20095;-63
2021/12/07 07:46:22;;;;;;;32.10;16.25;;;1.60;99.90;;;;;;5101348;28;20058;-63
2021/12/07 07:48:48;;;;;;;30.63;14.70;;;1.60;99.90;;;;;;5104016;28;20059;-63
2021/12/07 07:51:13;;;;;;;31.58;15.25;;;1.70;99.90;;;;;;5106461;28;20036;-63
2021/12/07 07:53:40;;;;;;;28.23;14.57;;;1.80;99.90;;;;;;5101699;28;20113;-63
2021/12/07 07:56:06;;;;;;;29.00;14.35;;;1.90;99.90;;;;;;5085092;28;20051;-63
2021/12/07 07:58:31;;;;;;;25.02;13.88;;;2.00;99.90;;;;;;5087556;28;20047;-61
2021/12/07 08:00:57;;;;;;;25.75;13.93;;;1.90;99.90;;;;;;5098566;28;20070;-61
2021/12/07 08:03:23;;;;;;;26.65;15.02;;;2.00;99.90;;;;;;5106292;28;20056;-61
2021/12/07 08:05:49;;;;;;;26.27;14.30;;;1.90;99.90;;;;;;5084843;28;20048;-62
2021/12/07 08:08:15;;;;;;;24.02;13.30;;;1.80;99.90;;;;;;5088222;28;20047;-61
2021/12/07 08:10:41;;;;;;;27.00;12.90;;;1.80;99.90;;;;;;5065753;28;20062;-61
2021/12/07 08:13:08;;;;;;;26.83;13.13;;;1.90;99.90;;;;;;5088590;28;20050;-64
2021/12/07 08:15:39;;;;;;;22.65;12.25;;;1.90;99.90;;;;;;5107745;28;20047;-61
2021/12/07 08:18:06;;;;;;;25.80;12.07;;;1.90;99.90;;;;;;5099130;28;20055;-62
2021/12/07 08:20:32;;;;;;;26.55;13.27;;;2.00;99.90;;;;;;5070769;28;20055;-61
2021/12/07 08:22:58;;;;;;;26.17;12.70;;;2.00;99.90;;;;;;5116742;28;20330;-61
2021/12/07 08:25:25;;;;;;;22.67;12.57;;;2.00;99.90;;;;;;5068688;28;20052;-61
2021/12/07 08:27:50;;;;;;;23.23;12.32;;;2.00;99.90;;;;;;5098354;28;20119;-61
2021/12/07 08:30:16;;;;;;;21.73;12.52;;;2.10;99.90;;;;;;5085455;28;20063;-62
2021/12/07 08:32:45;;;;;;;24.95;12.32;;;2.10;99.90;;;;;;5116366;28;20048;-61
2021/12/07 08:35:18;;;;;;;21.80;12.35;;;2.00;99.90;;;;;;5103396;27;20043;-62
2021/12/07 08:37:46;;;;;;;24.33;12.77;;;2.00;99.90;;;;;;5120016;28;20043;-61
2021/12/07 08:40:17;;;;;;;27.15;13.00;;;1.90;99.90;;;;;;5108284;27;20595;-64
2021/12/07 08:42:44;;;;;;;23.83;12.05;;;1.90;99.90;;;;;;5115593;28;20051;-61
2021/12/07 08:45:10;;;;;;;21.70;11.40;;;2.00;99.90;;;;;;5136380;27;20136;-62
2021/12/07 08:47:36;;;;;;;20.90;12.40;;;2.00;99.90;;;;;;5123091;28;20079;-63
2021/12/07 08:50:05;;;;;;;25.52;14.13;;;2.10;99.90;;;;;;5109405;28;20055;-62
2021/12/07 08:52:31;;;;;;;31.55;14.90;;;2.00;99.90;;;;;;5101724;28;20055;-62
2021/12/07 09:00:27;;;;;;;26.40;12.00;;;2.10;99.90;;;;;;5097622;28;20040;-62
2021/12/07 09:02:53;;;;;;;27.58;12.32;;;2.10;99.90;;;;;;5121947;28;20052;-60
2021/12/07 09:05:19;;;;;;;22.38;10.73;;;2.20;99.90;;;;;;5091893;28;20074;-61
2021/12/07 09:07:46;;;;;;;27.00;14.02;;;2.20;99.90;;;;;;5101134;28;20043;-60
2021/12/07 09:10:13;;;;;;;27.88;12.82;;;2.30;99.90;;;;;;5107137;27;20504;-61
2021/12/07 09:12:39;;;;;;;23.08;12.25;;;2.30;99.90;;;;;;5101718;28;20472;-60
2021/12/07 09:15:06;;;;;;;27.00;11.82;;;2.40;99.90;;;;;;5116273;27;20050;-60
2021/12/07 09:17:32;;;;;;;23.90;10.77;;;2.50;99.90;;;;;;5122149;27;20047;-60
2021/12/07 09:19:57;;;;;;;24.48;10.35;;;2.60;99.90;;;;;;5112153;27;20093;-60
2021/12/07 09:22:23;;;;;;;22.80;11.60;;;2.70;99.90;;;;;;5121324;27;20141;-61
2021/12/07 09:24:49;;;;;;;21.67;11.35;;;2.70;99.90;;;;;;5108207;28;20067;-60
2021/12/07 09:27:15;;;;;;;22.75;8.88;;;2.70;99.90;;;;;;5115752;27;20126;-60
2021/12/07 09:29:41;;;;;;;22.10;10.70;;;3.00;99.90;;;;;;5131643;27;20047;-60
2021/12/07 09:32:07;;;;;;;16.20;9.43;;;2.90;99.90;;;;;;5137953;27;20043;-61
2021/12/07 09:34:32;;;;;;;18.08;10.27;;;2.90;99.90;;;;;;5105164;28;20040;-61
2021/12/07 09:36:59;;;;;;;19.10;10.02;;;3.10;99.90;;;;;;5131311;27;20071;-61
2021/12/07 09:39:26;;;;;;;20.48;10.30;;;3.20;99.90;;;;;;5122518;27;20047;-60
2021/12/07 09:41:52;;;;;;;20.85;9.88;;;3.10;99.90;;;;;;5119955;27;20118;-61
2021/12/07 09:44:18;;;;;;;20.90;9.60;;;3.10;99.90;;;;;;5123326;27;20047;-61
2021/12/07 09:46:44;;;;;;;15.93;8.52;;;3.30;99.90;;;;;;5111316;27;20108;-61
2021/12/07 09:49:10;;;;;;;23.33;10.73;;;3.30;99.90;;;;;;5105871;27;20075;-61
2021/12/07 09:51:37;;;;;;;19.65;9.90;;;3.30;99.90;;;;;;5109300;27;20257;-61
2021/12/07 09:54:04;;;;;;;23.58;10.57;;;3.20;99.90;;;;;;5130794;27;20039;-61
2021/12/07 09:56:30;;;;;;;19.40;9.20;;;3.40;99.90;;;;;;5138213;27;20039;-61
2021/12/07 09:58:59;;;;;;;17.20;9.13;;;3.40;99.90;;;;;;5129593;27;20054;-61
2021/12/07 10:01:27;;;;;;;17.67;9.57;;;3.30;99.90;;;;;;5120888;27;20462;-61
2021/12/07 10:03:53;;;;;;;20.27;10.50;;;3.40;99.90;;;;;;5111037;27;20548;-60
2021/12/07 10:06:20;;;;;;;27.00;12.05;;;3.50;99.90;;;;;;5138568;27;20039;-61
2021/12/07 10:08:46;;;;;;;17.30;8.98;;;3.40;99.90;;;;;;5109672;27;20035;-61
2021/12/07 10:11:13;;;;;;;19.77;9.05;;;3.60;99.90;;;;;;5122339;27;20566;-61
2021/12/07 10:13:44;;;;;;;26.88;10.00;;;3.60;99.90;;;;;;5122834;27;20115;-61
2021/12/07 10:16:12;;;;;;;20.17;9.65;;;3.50;99.90;;;;;;5110383;27;20045;-61
2021/12/07 10:18:39;;;;;;;22.83;10.07;;;3.40;99.90;;;;;;5121395;27;20049;-60
2021/12/07 10:21:26;;;;;;;18.23;9.15;;;3.40;99.90;;;;;;5111619;27;20104;-61
2021/12/07 10:23:58;;;;;;;19.63;9.02;;;3.50;99.90;;;;;;5110264;27;20510;-61
2021/12/07 10:26:33;;;;;;;19.77;9.57;;;3.50;99.90;;;;;;5130158;27;20035;-61
2021/12/07 10:29:06;;;;;;;16.42;8.23;;;3.70;99.90;;;;;;5124142;27;20070;-61
2021/12/07 10:31:32;;;;;;;15.18;8.35;;;3.80;99.90;;;;;;5130633;27;20047;-60
2021/12/07 10:34:02;;;;;;;16.08;8.40;;;3.90;99.90;;;;;;5109741;27;20064;-61
2021/12/07 10:36:56;;;;;;;19.30;8.57;;;3.90;99.90;;;;;;5137394;27;20130;-60
2021/12/07 10:39:23;;;;;;;17.45;8.10;;;3.70;99.90;;;;;;5104400;27;20111;-60
2021/12/07 10:41:54;;;;;;;16.63;8.65;;;4.00;99.90;;;;;;5114681;27;20071;-61
2021/12/07 10:44:24;;;;;;;21.50;9.00;;;3.90;99.90;;;;;;5125580;27;20411;-61
2021/12/07 10:46:52;;;;;;;17.85;8.73;;;3.80;99.90;;;;;;5106373;27;20124;-61
2021/12/07 10:49:37;;;;;;;15.95;8.10;;;3.90;99.90;;;;;;5110214;27;20051;-60
2021/12/07 10:52:08;;;;;;;16.88;8.35;;;3.80;99.90;;;;;;5108699;27;20043;-61
2021/12/07 10:54:53;;;;;;;26.02;8.63;;;3.90;99.90;;;;;;5104049;27;20047;-61
2021/12/07 10:57:23;;;;;;;18.33;9.55;;;3.90;99.90;;;;;;5129402;27;20064;-61
2021/12/07 11:00:00;;;;;;;22.23;8.38;;;4.00;99.90;;;;;;5106208;28;20047;-61
2021/12/07 11:02:30;;;;;;;17.80;7.30;;;4.00;99.90;;;;;;5126268;27;20046;-61
2021/12/07 11:04:57;;;;;;;17.73;7.78;;;4.20;99.90;;;;;;5098350;28;20115;-61
2021/12/07 11:07:28;;;;;;;12.43;6.97;;;4.30;99.90;;;;;;5118457;27;20237;-61
2021/12/07 11:10:16;;;;;;;16.70;7.10;;;4.40;99.90;;;;;;5128201;27;20086;-61
2021/12/07 11:12:59;;;;;;;15.18;7.00;;;4.50;99.90;;;;;;5119409;27;20047;-61
2021/12/07 11:15:28;;;;;;;13.95;7.40;;;4.60;99.90;;;;;;5101753;28;20499;-61
2021/12/07 11:18:04;;;;;;;14.03;7.57;;;4.70;99.90;;;;;;5098620;28;20052;-61
2021/12/07 11:20:42;;;;;;;16.70;6.70;;;4.80;99.90;;;;;;5098144;27;1252186;-60
2021/12/07 11:23:17;;;;;;;12.65;6.13;;;4.90;99.90;;;;;;5124908;28;20536;-60
2021/12/07 11:31:24;;;;;;;15.23;6.03;;;5.20;99.90;;;;;;5077399;28;20040;-60
2021/12/07 11:33:55;;;;;;;12.90;7.05;;;5.10;99.90;;;;;;5114387;28;20075;-60
2021/12/07 11:36:32;;;;;;;18.30;6.68;;;5.10;99.90;;;;;;5072291;28;20052;-61
2021/12/07 11:38:59;;;;;;;16.00;6.32;;;5.10;99.90;;;;;;5105515;28;20116;-60
2021/12/07 11:41:32;;;;;;;12.15;6.18;;;5.10;99.90;;;;;;5080751;28;20121;-61
2021/12/07 11:44:05;;;;;;;16.70;6.35;;;5.20;99.90;;;;;;5133962;28;20053;-61
2021/12/07 11:46:34;;;;;;;15.65;6.35;;;5.30;99.90;;;;;;5110460;27;20042;-61
2021/12/07 11:49:20;;;;;;;11.07;5.90;;;5.40;99.90;;;;;;5155116;27;20383;-61
2021/12/07 11:51:49;;;;;;;12.85;5.50;;;5.40;99.90;;;;;;5098314;27;20072;-61
2021/12/07 11:54:17;;;;;;;16.35;6.50;;;5.30;99.90;;;;;;5143105;27;20073;-61
2021/12/07 11:56:44;;;;;;;17.02;6.55;;;5.40;99.90;;;;;;5138122;27;20386;-61
2021/12/07 11:59:11;;;;;;;14.90;6.18;;;5.60;99.90;;;;;;5124691;27;20096;-61
2021/12/07 12:01:37;;;;;;;19.27;5.72;;;5.50;99.90;;;;;;5106857;27;20044;-61
2021/12/07 12:04:03;;;;;;;14.05;5.97;;;5.60;99.90;;;;;;5155615;27;20494;-60
2021/12/07 12:06:30;;;;;;;15.75;6.40;;;5.70;99.90;;;;;;5125752;27;20128;-60
2021/12/07 12:08:57;;;;;;;11.13;5.32;;;5.70;99.90;;;;;;5144597;27;20063;-60
2021/12/07 12:11:42;;;;;;;16.33;6.07;;;5.60;99.90;;;;;;5125081;28;20137;-60
2021/12/07 12:14:33;;;;;;;17.08;6.32;;;5.80;99.90;;;;;;5143087;27;20047;-60
2021/12/07 12:17:37;;;;;;;10.77;5.47;;;5.70;99.90;;;;;;5122722;28;20047;-60
2021/12/07 12:20:11;;;;;;;9.05;6.03;;;5.70;99.90;;;;;;5082706;28;20048;-60
2021/12/07 12:22:47;;;;;;;15.02;6.30;;;5.60;99.90;;;;;;5106968;28;20105;-60
2021/12/07 12:25:17;;;;;;;17.77;6.47;;;5.60;99.90;;;;;;5123915;28;20093;-60
2021/12/07 12:27:45;;;;;;;14.45;6.30;;;5.60;99.90;;;;;;5122968;28;20035;-60
2021/12/07 12:30:19;;;;;;;18.38;6.82;;;5.60;99.90;;;;;;5122525;28;20058;-60
2021/12/07 12:32:47;;;;;;;16.88;6.47;;;5.60;99.90;;;;;;5121073;28;20126;-60
2021/12/07 12:35:14;;;;;;;11.43;5.70;;;5.70;99.90;;;;;;5096874;28;20395;-60
2021/12/07 12:37:48;;;;;;;15.60;6.38;;;5.80;99.90;;;;;;5074956;28;20063;-60
2021/12/07 12:40:27;;;;;;;21.33;7.35;;;5.70;99.90;;;;;;5109830;28;20097;-60
2021/12/07 12:42:55;;;;;;;13.80;5.40;;;5.80;99.90;;;;;;5116596;27;20054;-61
2021/12/07 12:45:35;;;;;;;14.57;6.13;;;5.90;99.90;;;;;;5099641;28;20086;-61
2021/12/07 12:48:05;;;;;;;13.05;6.35;;;5.90;99.90;;;;;;5106089;28;20051;-60
2021/12/07 12:50:49;;;;;;;15.30;6.20;;;5.80;99.90;;;;;;5090182;28;20066;-61
2021/12/07 12:53:34;;;;;;;12.95;6.60;;;6.00;99.90;;;;;;5116040;28;20307;-60
2021/12/07 12:56:09;;;;;;;16.15;6.70;;;6.00;99.90;;;;;;5092788;28;20051;-60
2021/12/07 12:58:38;;;;;;;16.33;5.82;;;5.80;99.90;;;;;;5119971;28;20040;-60
2021/12/07 13:01:18;;;;;;;18.10;6.82;;;6.10;99.90;;;;;;5077286;28;20076;-60
2021/12/07 13:04:01;;;;;;;16.27;6.60;;;6.10;99.90;;;;;;5120956;28;20044;-60
2021/12/07 13:06:33;;;;;;;16.13;5.72;;;5.90;99.90;;;;;;5107565;28;20082;-60
2021/12/07 13:09:02;;;;;;;14.40;5.55;;;6.20;99.90;;;;;;5091422;28;20047;-60
2021/12/07 13:11:54;;;;;;;15.85;6.07;;;6.20;99.90;;;;;;5102260;28;20078;-60
2021/12/07 13:14:23;;;;;;;16.92;6.07;;;6.00;99.90;;;;;;5118930;28;20055;-60
2021/12/07 13:17:00;;;;;;;16.42;6.00;;;6.00;99.90;;;;;;5079972;28;20043;-60
2021/12/07 13:19:28;;;;;;;12.55;5.75;;;6.40;99.90;;;;;;5091275;28;20090;-61
2021/12/07 13:21:56;;;;;;;14.40;5.72;;;6.60;99.90;;;;;;5097303;28;20078;-60
2021/12/07 13:24:35;;;;;;;12.07;5.80;;;6.50;99.90;;;;;;5099056;28;20048;-60
2021/12/07 13:27:10;;;;;;;16.50;6.20;;;6.40;99.90;;;;;;5087483;28;20048;-60
2021/12/07 13:29:36;;;;;;;14.82;4.90;;;6.50;99.90;;;;;;5084732;28;20487;-60
2021/12/07 13:32:05;;;;;;;15.63;5.78;;;6.70;99.90;;;;;;5086124;28;20078;-60
2021/12/07 13:34:36;;;;;;;16.50;5.35;;;6.60;99.90;;;;;;5111260;28;20142;-60
2021/12/07 13:37:12;;;;;;;10.70;5.57;;;6.60;99.90;;;;;;5091811;28;20059;-60
2021/12/07 13:39:40;;;;;;;15.02;5.22;;;6.60;99.90;;;;;;5089738;28;20121;-60
2021/12/07 13:42:12;;;;;;;10.80;6.10;;;6.80;99.90;;;;;;5096157;28;20126;-60
2021/12/07 13:44:45;;;;;;;11.55;6.80;;;6.90;99.90;;;;;;5108780;28;20059;-61
2021/12/07 13:47:12;;;;;;;15.32;6.40;;;6.80;99.90;;;;;;5108511;28;20063;-60
2021/12/07 13:49:41;;;;;;;17.98;6.85;;;6.90;99.90;;;;;;5074658;28;20055;-60
2021/12/07 13:52:14;;;;;;;12.52;6.68;;;7.00;99.90;;;;;;5086123;28;20520;-60
2021/12/07 13:54:51;;;;;;;10.38;6.38;;;6.90;99.90;;;;;;5083989;28;20125;-62
2021/12/07 13:57:29;;;;;;;11.75;6.70;;;7.00;99.90;;;;;;5066077;28;20083;-60
2021/12/07 14:00:02;;;;;;;9.50;5.30;;;7.00;99.90;;;;;;5085580;28;20147;-60
2021/12/07 14:02:28;;;;;;;12.82;6.47;;;7.10;99.90;;;;;;5083289;28;20052;-60
2021/12/07 14:05:16;;;;;;;15.93;6.88;;;7.00;99.90;;;;;;5092388;28;20056;-61
2021/12/07 14:07:44;;;;;;;13.52;6.95;;;6.90;99.90;;;;;;5097281;28;20102;-60
2021/12/07 14:10:21;;;;;;;14.77;6.97;;;6.80;99.90;;;;;;5078579;28;20169;-60
2021/12/07 14:12:49;;;;;;;17.92;7.20;;;7.00;99.90;;;;;;5075439;27;20035;-60
2021/12/07 14:15:24;;;;;;;14.93;6.72;;;7.10;99.90;;;;;;5066980;28;20143;-60
2021/12/07 14:17:57;;;;;;;11.75;6.75;;;7.00;99.90;;;;;;5090617;28;20035;-60
2021/12/07 14:20:34;;;;;;;16.50;7.03;;;6.90;99.90;;;;;;5107339;28;20048;-63
2021/12/07 14:23:13;;;;;;;16.90;7.50;;;6.80;99.90;;;;;;5100294;28;20058;-60
2021/12/07 14:25:52;;;;;;;16.27;7.75;;;6.60;99.90;;;;;;5103254;27;20165;-60
2021/12/07 14:28:29;;;;;;;15.87;6.97;;;6.60;99.90;;;;;;5115340;27;20044;-60
2021/12/07 14:31:20;;;;;;;16.90;7.45;;;6.60;99.90;;;;;;5093804;28;20075;-61
2021/12/07 14:33:56;;;;;;;17.67;7.30;;;6.30;99.90;;;;;;5102122;28;20561;-60
2021/12/07 14:36:31;;;;;;;14.15;6.97;;;6.30;99.90;;;;;;5082520;28;20100;-60
2021/12/07 14:39:11;;;;;;;14.90;7.47;;;6.30;99.90;;;;;;5099821;28;20272;-60
2021/12/07 14:41:46;;;;;;;18.60;8.35;;;6.30;99.90;;;;;;5085286;28;20048;-60
2021/12/07 14:44:18;;;;;;;15.27;8.40;;;6.40;99.90;;;;;;5081453;28;20043;-60
2021/12/07 14:46:45;;;;;;;19.15;8.48;;;6.30;99.90;;;;;;5106402;28;20062;-60
2021/12/07 14:49:12;;;;;;;14.52;8.27;;;6.40;99.90;;;;;;5098413;28;20043;-60